createdAt,value
2023-01-27T00:01:06.092Z,25.80
2023-01-27T00:03:34.185Z,25.10
2023-01-27T00:06:02.171Z,25.80
2023-01-27T00:08:30.217Z,29.30
2023-01-27T00:11:20.854Z,29.80
2023-01-27T00:13:48.714Z,28.70
2023-01-27T00:16:17.273Z,28.30
2023-01-27T00:18:45.722Z,28.20
2023-01-27T00:21:32.284Z,27.20
2023-01-27T00:26:46.648Z,23.80
2023-01-27T00:29:14.494Z,26.00
2023-01-27T00:32:00.810Z,26.50
2023-01-27T00:34:28.639Z,27.20
2023-01-27T00:36:56.463Z,29.50
2023-01-27T00:39:24.287Z,28.80
2023-01-27T00:41:52.130Z,29.50
2023-01-27T00:44:19.943Z,30.10
2023-01-27T00:46:47.813Z,31.20
2023-01-27T00:49:15.939Z,31.30
2023-01-27T00:51:44.254Z,32.70
2023-01-27T00:54:12.197Z,31.60
2023-01-27T00:56:40.506Z,30.50
2023-01-27T00:59:08.446Z,29.80
2023-01-27T01:01:36.473Z,31.40
2023-01-27T01:04:04.724Z,30.60
2023-01-27T01:06:32.766Z,28.90
2023-01-27T01:09:00.699Z,27.70
2023-01-27T01:11:28.840Z,26.70
2023-01-27T01:13:57.299Z,26.40
2023-01-27T01:16:26.063Z,25.70
2023-01-27T01:18:54.156Z,28.00
2023-01-27T01:21:22.646Z,27.00
2023-01-27T01:23:50.851Z,27.80
2023-01-27T01:26:19.089Z,24.90
2023-01-27T01:28:47.705Z,24.60
2023-01-27T01:31:19.216Z,23.60
2023-01-27T01:33:48.347Z,23.10
2023-01-27T01:36:18.722Z,22.30
2023-01-27T01:38:47.483Z,22.00
2023-01-27T01:41:20.519Z,22.70
2023-01-27T01:43:50.388Z,22.90
2023-01-27T01:46:19.482Z,22.10
2023-01-27T01:48:55.191Z,22.20
2023-01-27T01:51:29.920Z,22.00
2023-01-27T01:54:07.538Z,21.90
2023-01-27T01:57:03.059Z,21.80
2023-01-27T01:59:39.893Z,19.40
2023-01-27T02:04:45.558Z,20.50
2023-01-27T02:07:22.501Z,21.90
2023-01-27T02:09:56.248Z,22.50
2023-01-27T02:12:24.120Z,22.50
2023-01-27T02:14:52.385Z,23.40
2023-01-27T02:17:22.950Z,23.50
2023-01-27T02:20:14.450Z,24.70
2023-01-27T02:22:59.108Z,22.70
2023-01-27T02:25:35.474Z,23.30
2023-01-27T02:28:05.411Z,24.40
2023-01-27T02:30:34.263Z,24.50
2023-01-27T02:33:02.538Z,26.10
2023-01-27T02:35:37.041Z,25.90
2023-01-27T02:38:07.300Z,25.50
2023-01-27T02:40:37.489Z,25.30
2023-01-27T02:43:05.522Z,25.50
2023-01-27T02:45:33.357Z,25.70
2023-01-27T02:48:01.280Z,25.80
2023-01-27T02:50:30.031Z,25.60
2023-01-27T02:52:57.867Z,25.20
2023-01-27T02:55:25.814Z,25.30
2023-01-27T02:57:53.701Z,24.40
2023-01-27T03:03:07.912Z,23.20
2023-01-27T03:05:35.939Z,24.40
2023-01-27T03:08:03.940Z,25.40
2023-01-27T03:10:32.379Z,26.00
2023-01-27T03:13:00.206Z,24.50
2023-01-27T03:15:46.967Z,25.30
2023-01-27T03:18:16.773Z,25.90
2023-01-27T03:20:49.383Z,25.10
2023-01-27T03:23:19.460Z,27.30
2023-01-27T03:25:50.467Z,27.60
2023-01-27T03:28:18.290Z,29.50
2023-01-27T03:31:09.017Z,27.90
2023-01-27T03:33:44.359Z,28.20
2023-01-27T03:36:53.271Z,27.10
2023-01-27T03:39:40.110Z,28.10
2023-01-27T03:42:26.726Z,27.50
2023-01-27T03:45:14.795Z,27.00
2023-01-27T03:47:42.801Z,27.50
2023-01-27T03:50:13.928Z,27.10
2023-01-27T03:52:41.767Z,27.90
2023-01-27T03:55:10.239Z,26.80
2023-01-27T03:57:38.451Z,28.60
2023-01-27T04:00:07.097Z,27.50
2023-01-27T04:02:59.791Z,29.60
2023-01-27T04:05:47.018Z,30.70
2023-01-27T04:08:14.851Z,31.50
2023-01-27T04:11:02.609Z,30.30
2023-01-27T04:13:30.437Z,30.70
2023-01-27T04:15:58.735Z,32.40
2023-01-27T04:18:26.602Z,32.50
2023-01-27T04:20:54.551Z,34.90
2023-01-27T04:23:22.356Z,32.90
2023-01-27T04:25:53.678Z,30.60
2023-01-27T04:28:37.256Z,31.40
2023-01-27T04:31:09.664Z,30.90
2023-01-27T04:33:37.623Z,30.10
2023-01-27T04:36:05.710Z,31.80
2023-01-27T04:38:33.880Z,30.60
2023-01-27T04:41:01.748Z,30.90
2023-01-27T04:43:29.631Z,31.20
2023-01-27T04:45:57.755Z,33.40
2023-01-27T04:48:25.682Z,31.30
2023-01-27T04:50:53.766Z,33.70
2023-01-27T04:53:21.851Z,33.40
2023-01-27T04:55:50.392Z,32.40
2023-01-27T04:58:18.456Z,32.30
2023-01-27T05:00:46.358Z,32.70
2023-01-27T05:03:14.357Z,33.50
2023-01-27T05:05:42.425Z,34.00
2023-01-27T05:08:10.979Z,32.70
2023-01-27T05:10:38.799Z,31.50
2023-01-27T05:13:06.623Z,31.80
2023-01-27T05:15:34.521Z,32.20
2023-01-27T05:18:02.408Z,31.20
2023-01-27T05:20:31.822Z,30.70
2023-01-27T05:23:18.538Z,30.60
2023-01-27T05:25:46.578Z,29.70
2023-01-27T05:28:14.519Z,31.40
2023-01-27T05:30:42.444Z,30.70
2023-01-27T05:33:11.214Z,30.10
2023-01-27T05:35:39.224Z,33.50
2023-01-27T05:38:07.350Z,32.00
2023-01-27T05:40:35.282Z,31.70
2023-01-27T05:43:03.700Z,33.30
2023-01-27T05:45:31.555Z,32.40
2023-01-27T05:47:59.522Z,32.20
2023-01-27T05:50:27.546Z,31.80
2023-01-27T05:52:55.346Z,34.50
2023-01-27T05:55:23.211Z,33.00
2023-01-27T05:57:51.492Z,33.60
2023-01-27T06:00:20.001Z,33.00
2023-01-27T06:02:48.063Z,32.90
2023-01-27T06:05:16.255Z,33.20
2023-01-27T06:07:44.038Z,33.00
2023-01-27T06:10:12.683Z,32.90
2023-01-27T06:12:40.857Z,33.60
2023-01-27T06:15:09.751Z,33.50
2023-01-27T06:17:37.610Z,32.80
2023-01-27T06:20:06.073Z,33.00
2023-01-27T06:22:33.893Z,32.00
2023-01-27T06:25:01.684Z,31.60
2023-01-27T06:27:29.494Z,31.40
2023-01-27T06:29:57.230Z,31.80
2023-01-27T06:32:25.009Z,32.20
2023-01-27T06:34:52.918Z,31.30
2023-01-27T06:37:20.932Z,31.00
2023-01-27T06:39:48.718Z,31.90
2023-01-27T06:42:16.596Z,33.30
2023-01-27T06:44:44.552Z,33.70
2023-01-27T06:47:12.451Z,35.10
2023-01-27T06:49:40.546Z,34.20
2023-01-27T06:52:08.457Z,35.50
2023-01-27T06:54:36.274Z,35.80
2023-01-27T06:57:04.196Z,35.50
2023-01-27T06:59:32.026Z,36.30
2023-01-27T07:01:59.852Z,36.30
2023-01-27T07:04:27.647Z,34.30
2023-01-27T07:06:55.582Z,33.80
2023-01-27T07:09:23.421Z,36.30
2023-01-27T07:11:52.075Z,33.10
2023-01-27T07:14:19.895Z,34.10
2023-01-27T07:16:48.040Z,35.30
2023-01-27T07:19:16.987Z,33.90
2023-01-27T07:21:44.803Z,33.30
2023-01-27T07:24:12.768Z,33.60
2023-01-27T07:26:40.968Z,33.40
2023-01-27T07:29:08.807Z,33.10
2023-01-27T07:31:36.742Z,32.70
2023-01-27T07:34:04.708Z,33.80
2023-01-27T07:36:32.606Z,35.40
2023-01-27T07:39:00.495Z,33.80
2023-01-27T07:41:28.273Z,33.70
2023-01-27T07:43:56.085Z,37.50
2023-01-27T07:46:27.272Z,35.20
2023-01-27T07:48:55.099Z,37.40
2023-01-27T07:51:22.985Z,37.30
2023-01-27T07:53:52.361Z,38.80
2023-01-27T07:56:20.252Z,39.20
2023-01-27T07:58:48.289Z,39.20
2023-01-27T08:01:16.157Z,38.70
2023-01-27T08:03:44.383Z,40.60
2023-01-27T08:06:13.262Z,35.30
2023-01-27T08:08:41.862Z,34.50
2023-01-27T08:11:13.489Z,35.50
2023-01-27T08:13:42.384Z,36.50
2023-01-27T08:16:15.233Z,34.60
2023-01-27T08:18:43.326Z,32.90
2023-01-27T08:21:13.043Z,32.80
2023-01-27T08:23:41.129Z,32.30
2023-01-27T08:26:09.258Z,33.30
2023-01-27T08:28:38.944Z,35.10
2023-01-27T08:31:14.606Z,33.40
2023-01-27T08:33:44.740Z,34.90
2023-01-27T08:36:15.487Z,33.70
2023-01-27T08:38:45.038Z,34.90
2023-01-27T08:41:15.531Z,34.80
2023-01-27T08:43:44.016Z,33.90
2023-01-27T08:46:12.510Z,37.70
2023-01-27T08:48:41.278Z,35.50
2023-01-27T08:51:12.676Z,34.30
2023-01-27T08:53:41.039Z,31.50
2023-01-27T08:56:12.635Z,33.60
2023-01-27T08:58:40.682Z,34.60
2023-01-27T09:01:09.568Z,30.30
2023-01-27T09:03:37.654Z,29.40
2023-01-27T09:06:07.873Z,29.40
2023-01-27T09:08:36.386Z,30.70
2023-01-27T09:11:14.915Z,29.60
2023-01-27T09:13:43.466Z,26.10
2023-01-27T09:16:11.410Z,27.20
2023-01-27T09:18:39.435Z,26.70
2023-01-27T09:21:07.623Z,26.40
2023-01-27T09:23:35.658Z,25.00
2023-01-27T09:26:03.485Z,26.20
2023-01-27T09:28:31.338Z,27.80
2023-01-27T09:31:00.256Z,24.80
2023-01-27T09:33:28.399Z,24.20
2023-01-27T09:36:03.746Z,23.00
2023-01-27T09:38:34.857Z,19.70
2023-01-27T09:41:40.462Z,18.70
2023-01-27T09:44:34.301Z,18.50
2023-01-27T09:47:24.221Z,18.90
2023-01-27T09:50:20.390Z,17.90
2023-01-27T09:53:04.890Z,17.90
2023-01-27T09:55:51.041Z,18.10
2023-01-27T09:58:25.035Z,17.10
2023-01-27T10:01:04.672Z,15.60
2023-01-27T10:03:39.264Z,19.00
2023-01-27T10:06:20.005Z,17.90
2023-01-27T10:09:09.680Z,18.90
2023-01-27T10:11:55.039Z,17.10
2023-01-27T10:14:30.899Z,18.50
2023-01-27T10:17:41.085Z,16.30
2023-01-27T10:20:17.133Z,41.80
2023-01-27T10:23:07.206Z,16.20
2023-01-27T10:26:08.550Z,14.50
2023-01-27T10:28:38.067Z,13.80
2023-01-27T10:31:14.956Z,13.60
2023-01-27T10:34:01.881Z,15.30
2023-01-27T10:36:47.060Z,15.30
2023-01-27T10:39:44.312Z,14.30
2023-01-27T10:42:30.891Z,14.50
2023-01-27T10:47:50.684Z,14.40
2023-01-27T10:50:27.330Z,13.70
2023-01-27T10:53:07.516Z,14.50
2023-01-27T10:55:46.966Z,14.60
2023-01-27T10:58:39.930Z,15.60
2023-01-27T11:01:21.264Z,14.60
2023-01-27T11:04:02.477Z,15.00
2023-01-27T11:06:42.444Z,15.80
2023-01-27T11:09:28.666Z,16.30
2023-01-27T11:12:00.827Z,16.30
2023-01-27T11:14:48.447Z,17.30
2023-01-27T11:17:29.210Z,14.70
2023-01-27T11:20:20.670Z,14.70
2023-01-27T11:23:00.205Z,16.10
2023-01-27T11:25:34.076Z,15.20
2023-01-27T11:28:25.956Z,16.50
2023-01-27T11:31:16.953Z,16.50
2023-01-27T11:34:16.267Z,15.50
2023-01-27T11:36:44.096Z,16.50
2023-01-27T11:39:14.566Z,16.80
2023-01-27T11:41:52.047Z,15.30
2023-01-27T11:44:29.485Z,16.40
2023-01-27T11:46:57.898Z,18.10
2023-01-27T11:49:37.348Z,18.10
2023-01-27T11:52:18.032Z,18.10
2023-01-27T11:55:05.337Z,18.10
2023-01-27T11:57:35.456Z,18.00
2023-01-27T12:00:25.973Z,17.50
2023-01-27T12:03:03.580Z,19.40
2023-01-27T12:05:35.028Z,17.30
2023-01-27T12:08:05.504Z,17.80
2023-01-27T12:10:44.568Z,18.60
2023-01-27T12:13:27.089Z,18.80
2023-01-27T12:16:00.478Z,19.70
2023-01-27T12:18:34.055Z,19.20
2023-01-27T12:21:06.752Z,19.60
2023-01-27T12:23:39.207Z,17.80
2023-01-27T12:26:09.959Z,23.00
2023-01-27T12:28:43.102Z,20.70
2023-01-27T12:31:51.831Z,18.80
2023-01-27T12:34:37.418Z,18.00
2023-01-27T12:37:07.998Z,19.10
2023-01-27T12:39:45.579Z,17.20
2023-01-27T12:42:39.211Z,19.50
2023-01-27T12:45:29.976Z,20.70
2023-01-27T12:48:10.312Z,17.50
2023-01-27T12:50:53.000Z,18.50
2023-01-27T12:53:27.932Z,18.00
2023-01-27T12:56:12.277Z,18.40
2023-01-27T12:58:56.631Z,19.40
2023-01-27T13:01:34.070Z,17.90
2023-01-27T13:04:21.981Z,16.90
2023-01-27T13:07:01.709Z,18.10
2023-01-27T13:10:03.331Z,17.50
2023-01-27T13:12:47.739Z,17.80
2023-01-27T13:15:19.289Z,17.00
2023-01-27T13:17:49.680Z,15.90
2023-01-27T13:20:20.743Z,18.20
2023-01-27T13:22:53.347Z,17.60
2023-01-27T13:25:26.740Z,17.80
2023-01-27T13:27:59.304Z,16.60
2023-01-27T13:30:37.118Z,18.10
2023-01-27T13:33:37.689Z,19.20
2023-01-27T13:36:21.108Z,20.10
2023-01-27T13:39:14.951Z,20.70
2023-01-27T13:42:06.945Z,18.10
2023-01-27T13:44:47.055Z,19.10
2023-01-27T13:47:21.983Z,19.20
2023-01-27T13:50:08.393Z,21.40
2023-01-27T13:55:11.618Z,19.70
2023-01-27T13:58:05.760Z,21.40
2023-01-27T14:01:08.737Z,21.20
2023-01-27T14:04:09.276Z,23.20
2023-01-27T14:07:16.544Z,22.00
2023-01-27T14:10:10.621Z,21.10
2023-01-27T14:13:13.755Z,20.30
2023-01-27T14:15:49.800Z,21.10
2023-01-27T14:18:26.520Z,20.30
2023-01-27T14:21:09.403Z,21.40
2023-01-27T14:24:01.022Z,21.90
2023-01-27T14:26:50.259Z,19.80
2023-01-27T14:29:43.355Z,20.70
2023-01-27T14:32:26.394Z,21.20
2023-01-27T14:35:21.094Z,20.40
2023-01-27T14:38:17.193Z,21.70
2023-01-27T14:41:18.741Z,24.00
2023-01-27T14:43:49.198Z,22.30
2023-01-27T14:46:48.400Z,23.20
2023-01-27T14:49:44.349Z,25.50
2023-01-27T14:52:15.139Z,25.80
2023-01-27T14:55:11.233Z,22.80
2023-01-27T14:57:55.905Z,23.60
2023-01-27T15:00:39.181Z,23.50
2023-01-27T15:03:40.387Z,25.60
2023-01-27T15:06:29.766Z,25.80
2023-01-27T15:09:39.176Z,28.80
2023-01-27T15:12:36.774Z,25.00
2023-01-27T15:15:28.182Z,25.20
2023-01-27T15:18:36.747Z,26.20
2023-01-27T15:21:38.256Z,24.60
2023-01-27T15:24:06.026Z,27.30
2023-01-27T15:26:36.469Z,25.10
2023-01-27T15:29:05.131Z,25.60
2023-01-27T15:31:33.605Z,24.40
2023-01-27T15:34:04.374Z,25.80
2023-01-27T15:36:34.063Z,26.30
2023-01-27T15:39:10.939Z,27.00
2023-01-27T15:42:01.750Z,26.80
2023-01-27T15:44:38.413Z,26.10
2023-01-27T15:47:35.247Z,29.00
2023-01-27T15:50:05.784Z,25.90
2023-01-27T15:52:42.800Z,27.30
2023-01-27T15:55:32.497Z,26.60
2023-01-27T15:58:09.194Z,27.20
2023-01-27T16:00:42.500Z,26.90
2023-01-27T16:03:33.523Z,28.40
2023-01-27T16:06:09.807Z,35.10
2023-01-27T16:08:43.482Z,28.70
2023-01-27T16:11:34.448Z,27.80
2023-01-27T16:14:11.615Z,27.80
2023-01-27T16:16:51.775Z,26.40
2023-01-27T16:19:27.641Z,25.30
2023-01-27T16:22:02.953Z,29.40
2023-01-27T16:24:46.279Z,27.70
2023-01-27T16:27:14.057Z,24.30
2023-01-27T16:29:48.321Z,25.20
2023-01-27T16:32:19.331Z,23.50
2023-01-27T16:35:18.506Z,25.80
2023-01-27T16:38:15.805Z,32.30
2023-01-27T16:40:51.299Z,28.40
2023-01-27T16:43:30.008Z,26.70
2023-01-27T16:46:02.608Z,24.90
2023-01-27T16:48:46.740Z,27.50
2023-01-27T16:51:18.711Z,28.70
2023-01-27T16:53:51.969Z,26.50
2023-01-27T16:56:21.454Z,28.30
2023-01-27T16:58:51.200Z,28.90
2023-01-27T17:01:47.922Z,28.80
2023-01-27T17:04:27.601Z,26.80
2023-01-27T17:07:09.349Z,26.90
2023-01-27T17:09:52.335Z,28.00
2023-01-27T17:12:31.039Z,28.20
2023-01-27T17:15:01.130Z,27.00
2023-01-27T17:17:34.383Z,28.00
2023-01-27T17:20:05.223Z,27.80
2023-01-27T17:22:44.008Z,28.70
2023-01-27T17:25:21.333Z,28.50
2023-01-27T17:27:49.648Z,28.50
2023-01-27T17:30:25.071Z,30.00
2023-01-27T17:33:01.875Z,31.30
2023-01-27T17:35:33.562Z,29.50
2023-01-27T17:38:10.138Z,32.20
2023-01-27T17:40:41.901Z,31.80
2023-01-27T17:43:32.112Z,30.20
2023-01-27T17:46:03.129Z,32.40
2023-01-27T17:48:38.414Z,32.90
2023-01-27T17:51:07.293Z,32.00
2023-01-27T17:53:39.079Z,31.90
2023-01-27T17:56:21.744Z,32.00
2023-01-27T17:58:55.156Z,29.50
2023-01-27T18:01:23.142Z,32.40
2023-01-27T18:03:55.362Z,31.30
2023-01-27T18:06:27.762Z,30.70
2023-01-27T18:08:58.826Z,31.00
2023-01-27T18:11:31.399Z,30.20
2023-01-27T18:14:07.917Z,31.70
2023-01-27T18:16:36.188Z,31.70
2023-01-27T18:19:24.983Z,32.00
2023-01-27T18:22:17.193Z,34.10
2023-01-27T18:25:00.962Z,31.40
2023-01-27T18:27:34.640Z,33.70
2023-01-27T18:30:24.051Z,32.70
2023-01-27T18:33:02.929Z,31.30
2023-01-27T18:35:35.073Z,31.90
2023-01-27T18:38:19.704Z,31.80
2023-01-27T18:40:49.518Z,32.40
2023-01-27T18:43:18.073Z,31.50
2023-01-27T18:45:48.407Z,30.90
2023-01-27T18:48:17.952Z,31.60
2023-01-27T18:50:47.533Z,30.50
2023-01-27T18:53:22.725Z,31.90
2023-01-27T18:55:54.956Z,31.60
2023-01-27T18:58:25.161Z,34.50
2023-01-27T19:00:55.421Z,30.50
2023-01-27T19:03:25.550Z,30.70
2023-01-27T19:05:57.588Z,34.30
2023-01-27T19:08:28.400Z,34.10
2023-01-27T19:10:57.081Z,33.90
2023-01-27T19:13:28.756Z,33.70
2023-01-27T19:15:59.987Z,35.70
2023-01-27T19:18:36.133Z,33.10
2023-01-27T19:21:07.401Z,33.20
2023-01-27T19:23:37.114Z,35.30
2023-01-27T19:26:10.062Z,37.00
2023-01-27T19:28:38.917Z,36.40
2023-01-27T19:31:07.826Z,39.80
2023-01-27T19:33:37.364Z,40.80
2023-01-27T19:36:29.344Z,39.50
2023-01-27T19:39:17.523Z,37.70
2023-01-27T19:41:46.250Z,35.30
2023-01-27T19:44:15.262Z,36.20
2023-01-27T19:46:43.429Z,37.80
2023-01-27T19:49:16.900Z,34.20
2023-01-27T19:51:45.104Z,36.50
2023-01-27T19:54:13.038Z,39.00
2023-01-27T19:56:40.894Z,36.30
2023-01-27T19:59:10.013Z,34.90
2023-01-27T20:01:37.829Z,40.20
2023-01-27T20:04:05.784Z,38.50
2023-01-27T20:06:34.456Z,39.40
2023-01-27T20:09:03.721Z,39.60
2023-01-27T20:11:43.162Z,42.30
2023-01-27T20:14:14.280Z,44.70
2023-01-27T20:16:43.065Z,41.60
2023-01-27T20:19:15.176Z,39.80
2023-01-27T20:21:45.517Z,38.60
2023-01-27T20:24:18.253Z,39.00
2023-01-27T20:26:46.427Z,42.10
2023-01-27T20:29:14.384Z,40.10
2023-01-27T20:31:42.707Z,44.30
2023-01-27T20:34:10.989Z,40.50
2023-01-27T20:36:38.824Z,41.00
2023-01-27T20:39:06.653Z,38.70
2023-01-27T20:41:34.547Z,40.40
2023-01-27T20:44:02.417Z,41.50
2023-01-27T20:46:30.893Z,40.30
2023-01-27T20:48:59.588Z,41.60
2023-01-27T20:51:27.420Z,39.10
2023-01-27T20:53:55.276Z,38.40
2023-01-27T20:56:24.212Z,44.20
2023-01-27T20:58:52.624Z,42.70
2023-01-27T21:01:23.080Z,43.40
2023-01-27T21:03:51.294Z,44.20
2023-01-27T21:06:20.235Z,45.90
2023-01-27T21:08:49.360Z,41.40
2023-01-27T21:11:20.193Z,41.60
2023-01-27T21:13:49.131Z,44.90
2023-01-27T21:16:17.444Z,44.00
2023-01-27T21:18:45.750Z,44.10
2023-01-27T21:21:27.276Z,40.10
2023-01-27T21:23:56.565Z,41.00
2023-01-27T21:26:24.802Z,39.50
2023-01-27T21:28:53.181Z,40.10
2023-01-27T21:31:24.513Z,39.50
2023-01-27T21:33:52.373Z,38.80
2023-01-27T21:36:20.295Z,43.50
2023-01-27T21:38:53.986Z,40.90
2023-01-27T21:41:42.312Z,50.30
2023-01-27T21:44:36.811Z,44.70
2023-01-27T21:47:06.518Z,51.40
2023-01-27T21:49:58.702Z,41.20
2023-01-27T21:52:39.374Z,38.80
2023-01-27T21:55:10.345Z,39.20
2023-01-27T21:57:38.241Z,39.50
2023-01-27T22:00:10.426Z,40.70
2023-01-27T22:02:42.434Z,38.00
2023-01-27T22:05:12.794Z,44.70
2023-01-27T22:07:41.855Z,44.60
2023-01-27T22:10:19.297Z,42.00
2023-01-27T22:12:49.393Z,40.20
2023-01-27T22:15:20.084Z,49.40
2023-01-27T22:17:48.152Z,61.20
2023-01-27T22:27:56.888Z,50.30
2023-01-27T22:30:24.838Z,43.40
2023-01-27T22:32:52.790Z,41.80
2023-01-27T22:35:20.859Z,42.90
2023-01-27T22:37:49.285Z,40.50
2023-01-27T22:40:18.075Z,41.50
2023-01-27T22:42:48.468Z,42.20
2023-01-27T22:45:17.250Z,42.80
2023-01-27T22:47:45.517Z,41.50
2023-01-27T22:50:14.121Z,43.50
2023-01-27T22:52:42.622Z,40.60
2023-01-27T22:55:12.312Z,40.10
2023-01-27T22:57:40.575Z,39.30
2023-01-27T23:00:09.976Z,49.30
2023-01-27T23:02:38.173Z,41.80
2023-01-27T23:05:07.061Z,42.60
2023-01-27T23:07:35.039Z,41.10
2023-01-27T23:10:03.085Z,42.40
2023-01-27T23:12:30.938Z,41.00
2023-01-27T23:15:01.883Z,42.40
2023-01-27T23:17:30.158Z,36.50
2023-01-27T23:19:58.130Z,37.60
2023-01-27T23:22:26.146Z,37.70
2023-01-27T23:24:54.228Z,37.30
2023-01-27T23:27:22.177Z,38.30
2023-01-27T23:29:50.141Z,40.00
2023-01-27T23:32:17.999Z,37.10
2023-01-27T23:34:45.911Z,39.00
2023-01-27T23:37:14.063Z,43.70
2023-01-27T23:39:46.076Z,43.00
2023-01-27T23:42:15.190Z,41.10
2023-01-27T23:44:43.154Z,40.60
2023-01-27T23:47:12.644Z,39.70
2023-01-27T23:49:41.022Z,40.40
2023-01-27T23:52:08.967Z,38.90
2023-01-27T23:54:37.501Z,39.90
2023-01-27T23:57:05.549Z,38.40
2023-01-27T23:59:33.572Z,38.60
